グアム の空港の天気 - METARとTAF

グアム国際空港 ( PGUM / GUM ) - グアム ハガニア
飛行場実況気象(Metar)
観測時間04/22 02:54 ChST (04/21 16:54 UTC)
風向・風速東 2m/s
視程10km以上
天気現象
なし
気温26.1℃
湿度79%
気圧1011.6hPa
METARPGUM 211654Z 08004KT 10SM CLR 26/22 A2990 RMK AO2 SLP116 T02610222
過去の天気等 Google飛行場航空写真 Wunderground天気予報

過去48時間のMETAR

飛行場予報(TAF)
発表時間: 4/21 21:29 ChST (4/21 11:29 UTC)
予報対象時間: 21日22時 ChST ~ 23日4時 ChST
風向・風速東 4m/s
視程10km以上
少しの雲 雲底高度 610m
22日9時 ChST から
風向・風速東 7m/s
視程10km以上
全天の4割程度の雲 雲底高度 760m
全天の4割程度の雲 雲底高度 1220m
22日19時 ChST から
風向・風速東 5m/s
視程10km以上
少しの雲 雲底高度 760m
少しの雲 雲底高度 1220m
PGUM 211129Z 2112/2218 08008KT P6SM FEW020
FM212300 08014KT P6SM SCT025 SCT040
FM220900 09010KT P6SM FEW025 FEW040